Sunday, October 22, 2017, 5:13 PM EDT
Back to Local

KABE, Lehigh Valley International Airport

Location: Allentown, PA, United States Lat: 40.65
Local Time: 5:13 PM EDT (21:13 GMT) Lon: -75.45
Time Zone: US/Eastern Elev: 393 ft

Show me the last for .
Show Decoded

2017-10-22 16:51 METAR KABE 222051Z 15009KT 10SM CLR 24/07 A3033 RMK AO2 SLP270 T02390072 56010 $
                 =
2017-10-22 15:51 METAR KABE 221951Z 17008KT 10SM CLR 24/07 A3034 RMK AO2 SLP273 T02440072 $ =
2017-10-22 14:51 METAR KABE 221851Z 20009KT 10SM CLR 24/06 A3034 RMK AO2 SLP273 T02440056 $ =
2017-10-22 13:51 METAR KABE 221751Z 19005KT 10SM CLR 24/06 A3036 RMK AO2 SLP281 T02390061 10244
                 20072 58015 $ =
2017-10-22 12:51 METAR KABE 221651Z VRB05KT 10SM CLR 23/09 A3038 RMK AO2 SLP287 T02280094 $ =
2017-10-22 11:51 METAR KABE 221551Z 00000KT 10SM CLR 21/09 A3040 RMK AO2 SLP294 T02060094 $ =
2017-10-22 10:51 METAR KABE 221451Z 06003KT 10SM CLR 17/09 A3041 RMK AO2 SLP297 T01670089 58002 $
                 =
2017-10-22 09:51 METAR KABE 221351Z 00000KT 10SM CLR 13/08 A3041 RMK AO2 SLP299 T01330083 =
2017-10-22 08:51 METAR KABE 221251Z 00000KT 10SM CLR 09/07 A3042 RMK AO2 SLP302 T00940067 =
2017-10-22 07:51 METAR KABE 221151Z 00000KT 9SM CLR 07/06 A3041 RMK AO2 SLP299 T00720056 10083
                 20056 51015 =
2017-10-22 06:51 METAR KABE 221051Z 00000KT 10SM CLR 07/04 A3040 RMK AO2 SLP294 T00670044 =
2017-10-22 05:51 METAR KABE 220951Z 00000KT 10SM CLR 06/04 A3039 RMK AO2 SLP289 T00610044 =
2017-10-22 04:51 METAR KABE 220851Z 33003KT 10SM CLR 06/04 A3037 RMK AO2 SLP283 T00610039 51003 =
2017-10-22 03:51 METAR KABE 220751Z 00000KT 10SM CLR 07/06 A3036 RMK AO2 SLP281 T00720056 =
2017-10-22 02:51 METAR KABE 220651Z 00000KT 10SM CLR 07/05 A3037 RMK AO2 SLP283 T00720050 =
2017-10-22 01:51 METAR KABE 220551Z AUTO 01003KT 10SM CLR 08/06 A3036 RMK AO2 SLP279 T00780056
                 10150 20072 58002 =
2017-10-22 00:51 METAR KABE 220451Z AUTO 00000KT 10SM CLR 09/07 A3037 RMK AO2 SLP284 T00890067
                 402500044 =
2017-10-21 23:51 METAR KABE 220351Z 30003KT 10SM CLR 11/07 A3037 RMK AO2 SLP283 T01060072 =
2017-10-21 22:51 METAR KABE 220251Z 32003KT 10SM CLR 10/07 A3036 RMK AO2 SLP283 T01000072 51005 =
2017-10-21 21:51 METAR KABE 220151Z 00000KT 10SM CLR 12/08 A3036 RMK AO2 SLP281 T01170078 =
2017-10-21 20:51 METAR KABE 220051Z 00000KT 10SM CLR 13/08 A3036 RMK AO2 SLP281 T01330078 =
2017-10-21 19:51 METAR KABE 212351Z 32003KT 10SM CLR 15/08 A3035 RMK AO2 SLP279 T01500078 10250
                 20144 53011 =
2017-10-21 18:51 METAR KABE 212251Z 00000KT 10SM CLR 17/07 A3034 RMK AO2 SLP273 T01720067 =
2017-10-21 17:51 METAR KABE 212151Z 20004KT 10SM CLR 22/07 A3033 RMK AO2 SLP270 T02220067 =

Support USWX by starting your Amazon purchase here.